createdAt,value
2018-06-18T00:00:15.859Z,61.65
2018-06-18T00:01:15.626Z,62.01
2018-06-18T00:02:15.908Z,62.48
2018-06-18T00:03:15.931Z,61.91
2018-06-18T00:04:15.958Z,62.68
2018-06-18T00:06:15.746Z,62.96
2018-06-18T00:07:16.034Z,63.25
2018-06-18T00:08:16.158Z,63.16
2018-06-18T00:09:16.076Z,63.45
2018-06-18T00:10:16.102Z,63.45
2018-06-18T00:11:30.788Z,63.35
2018-06-18T00:12:16.153Z,64.02
2018-06-18T00:13:16.173Z,63.64
2018-06-18T00:14:16.196Z,64.09
2018-06-18T00:15:16.223Z,64.47
2018-06-18T00:16:16.247Z,64.37
2018-06-18T00:17:16.270Z,64.09
2018-06-18T00:18:16.298Z,64.56
2018-06-18T00:19:16.318Z,65.14
2018-06-18T00:20:16.344Z,65.14
2018-06-18T00:21:16.372Z,64.66
2018-06-18T00:22:16.392Z,65.33
2018-06-18T00:23:16.414Z,65.52
2018-06-18T00:24:16.285Z,65.23
2018-06-18T00:25:16.461Z,65.33
2018-06-18T00:26:16.487Z,65.43
2018-06-18T00:27:16.513Z,64.85
2018-06-18T00:28:16.534Z,65.43
2018-06-18T00:29:16.559Z,65.72
2018-06-18T00:30:16.583Z,65.43
2018-06-18T00:31:16.605Z,65.33
2018-06-18T00:32:16.634Z,65.72
2018-06-18T00:33:16.656Z,65.62
2018-06-18T00:34:16.678Z,66
2018-06-18T00:37:16.751Z,66.58
2018-06-18T00:39:16.542Z,65.91
2018-06-18T00:40:16.825Z,66.58
2018-06-18T00:41:16.846Z,66.45
2018-06-18T00:42:16.873Z,67.32
2018-06-18T00:43:31.557Z,67.22
2018-06-18T00:44:16.917Z,67.6
2018-06-18T00:45:16.942Z,67.89
2018-06-18T00:46:16.965Z,67.89
2018-06-18T00:47:16.995Z,67.69
2018-06-18T00:48:17.022Z,68.08
2018-06-18T00:49:16.782Z,67.89
2018-06-18T00:50:17.070Z,67.79
2018-06-18T00:51:17.090Z,67.41
2018-06-18T00:52:17.118Z,67.6
2018-06-18T00:54:17.159Z,67.69
2018-06-18T00:55:17.183Z,67.5
2018-06-18T00:56:17.206Z,67.22
2018-06-18T00:57:16.977Z,67.99
2018-06-18T00:58:17.256Z,68.18
2018-06-18T00:59:31.938Z,67.6
2018-06-18T01:00:17.305Z,68.18
2018-06-18T01:01:17.326Z,67.79
2018-06-18T01:02:17.349Z,67.99
2018-06-18T01:03:17.114Z,68.56
2018-06-18T01:04:17.397Z,68.18
2018-06-18T01:05:17.422Z,68.18
2018-06-18T01:07:17.467Z,68.66
2018-06-18T01:09:17.513Z,68.37
2018-06-18T01:10:17.540Z,69.23
2018-06-18T01:11:17.565Z,68.33
2018-06-18T01:12:17.590Z,68.33
2018-06-18T01:13:17.612Z,69.1
2018-06-18T01:14:17.636Z,68.56
2018-06-18T01:15:32.318Z,68.56
2018-06-18T01:16:17.681Z,69.13
2018-06-18T01:17:17.707Z,68.72
2018-06-18T01:18:17.743Z,68.72
2018-06-18T01:19:17.750Z,69.1
2018-06-18T01:21:17.798Z,69.48
2018-06-18T01:22:17.824Z,69.01
2018-06-18T01:24:17.876Z,70.64
2018-06-18T01:25:17.897Z,70.15
2018-06-18T01:26:17.919Z,70.92
2018-06-18T01:27:17.943Z,69.77
2018-06-18T01:28:17.969Z,70.35
2018-06-18T01:29:18.044Z,70.15
2018-06-18T01:30:18.065Z,71.02
2018-06-18T01:31:32.699Z,70.54
2018-06-18T01:32:17.803Z,71.08
2018-06-18T01:33:18.085Z,71.4
2018-06-18T01:34:17.851Z,71.31
2018-06-18T01:35:18.142Z,71.4
2018-06-18T01:37:18.178Z,71.02
2018-06-18T01:38:18.205Z,71.4
2018-06-18T01:40:18.257Z,71.37
2018-06-18T01:41:18.274Z,71.11
2018-06-18T01:42:18.299Z,71.11
2018-06-18T01:43:18.325Z,71.5
2018-06-18T01:44:18.347Z,71.17
2018-06-18T01:45:18.366Z,71.46
2018-06-18T01:46:33.056Z,71.02
2018-06-18T01:47:18.418Z,71.17
2018-06-18T01:48:18.441Z,70.89
2018-06-18T01:49:18.466Z,71.21
2018-06-18T01:50:18.232Z,71.08
2018-06-18T01:51:18.513Z,71.46
2018-06-18T01:53:18.560Z,71.94
2018-06-18T01:54:18.581Z,70.89
2018-06-18T01:55:18.606Z,71.37
2018-06-18T01:56:18.632Z,71.75
2018-06-18T01:57:18.657Z,72.42
2018-06-18T01:58:18.679Z,71.94
2018-06-18T01:59:18.699Z,71.46
2018-06-18T02:00:18.739Z,71.94
2018-06-18T02:01:18.746Z,72.9
2018-06-18T02:02:18.770Z,72.8
2018-06-18T02:03:18.790Z,73.09
2018-06-18T02:04:18.822Z,73.19
2018-06-18T02:05:18.842Z,72.99
2018-06-18T02:06:18.865Z,72.71
2018-06-18T02:07:18.888Z,73.28
2018-06-18T02:08:18.913Z,72.52
2018-06-18T02:09:18.679Z,72.9
2018-06-18T02:11:18.726Z,72.9
2018-06-18T02:12:19.007Z,73.76
2018-06-18T02:13:19.030Z,73.47
2018-06-18T02:14:19.059Z,73.47
2018-06-18T02:15:19.076Z,73.19
2018-06-18T02:16:19.233Z,73.38
2018-06-18T02:17:18.866Z,73.28
2018-06-18T02:18:33.810Z,73.95
2018-06-18T02:19:19.171Z,73.76
2018-06-18T02:20:19.197Z,73.47
2018-06-18T02:21:19.216Z,73.09
2018-06-18T02:22:19.241Z,73.28
2018-06-18T02:23:19.265Z,73.38
2018-06-18T02:24:19.290Z,73.66
2018-06-18T02:25:19.315Z,73.95
2018-06-18T02:26:19.347Z,73.76
2018-06-18T02:28:19.386Z,74.05
2018-06-18T02:29:19.406Z,73.76
2018-06-18T02:30:19.433Z,73.66
2018-06-18T02:31:19.454Z,73.66
2018-06-18T02:32:19.475Z,73.47
2018-06-18T02:33:19.246Z,73.47
2018-06-18T02:34:34.185Z,73.57
2018-06-18T02:35:19.291Z,73.38
2018-06-18T02:36:19.570Z,73.47
2018-06-18T02:37:19.593Z,73.76
2018-06-18T02:38:19.620Z,73.76
2018-06-18T02:39:19.639Z,73.95
2018-06-18T02:40:19.408Z,73.66
2018-06-18T02:41:19.428Z,73.76
2018-06-18T02:42:19.720Z,73.57
2018-06-18T02:43:19.739Z,73.86
2018-06-18T02:44:19.759Z,73.95
2018-06-18T02:45:19.782Z,73.66
2018-06-18T02:46:19.807Z,73.95
2018-06-18T02:47:19.828Z,74.15
2018-06-18T02:48:19.852Z,74.15
2018-06-18T02:49:19.879Z,73.76
2018-06-18T02:50:34.560Z,73.95
2018-06-18T02:51:19.928Z,74.72
2018-06-18T02:52:19.948Z,74.15
2018-06-18T02:53:19.972Z,74.52
2018-06-18T02:54:20.009Z,73.76
2018-06-18T02:55:20.030Z,73.95
2018-06-18T02:56:20.041Z,74.05
2018-06-18T02:59:20.108Z,74.72
2018-06-18T03:00:20.134Z,74.72
2018-06-18T03:01:20.157Z,74.43
2018-06-18T03:02:20.184Z,74.72
2018-06-18T03:03:20.214Z,74.33
2018-06-18T03:04:20.230Z,74.72
2018-06-18T03:05:20.251Z,74.52
2018-06-18T03:06:34.934Z,74.52
2018-06-18T03:07:20.298Z,74.52
2018-06-18T03:08:20.323Z,74.72
2018-06-18T03:09:20.349Z,74.33
2018-06-18T03:10:20.370Z,74.24
2018-06-18T03:11:20.390Z,74.05
2018-06-18T03:12:20.517Z,74.43
2018-06-18T03:13:20.440Z,74.52
2018-06-18T03:14:20.205Z,74.82
2018-06-18T03:15:20.485Z,75.39
2018-06-18T03:17:20.553Z,75.58
2018-06-18T03:18:20.557Z,76.25
2018-06-18T03:19:20.578Z,76.64
2018-06-18T03:20:20.604Z,76.92
2018-06-18T03:21:35.285Z,77.5
2018-06-18T03:22:20.648Z,76.92
2018-06-18T03:23:20.418Z,77.02
2018-06-18T03:24:20.701Z,76.44
2018-06-18T03:25:20.720Z,76.82
2018-06-18T03:26:20.744Z,75.96
2018-06-18T03:27:20.764Z,75.2
2018-06-18T03:28:20.788Z,75.01
2018-06-18T03:30:20.839Z,75.43
2018-06-18T03:31:20.858Z,75.23
2018-06-18T03:32:20.920Z,75.43
2018-06-18T03:33:20.906Z,76.44
2018-06-18T03:34:20.930Z,76.15
2018-06-18T03:35:20.695Z,75.87
2018-06-18T03:36:20.982Z,76
2018-06-18T03:37:21.110Z,76.86
2018-06-18T03:38:21.025Z,77.06
2018-06-18T03:39:21.049Z,76.86
2018-06-18T03:40:21.071Z,76.67
2018-06-18T03:41:21.096Z,77.25
2018-06-18T03:42:21.119Z,77.53
2018-06-18T03:43:21.142Z,77.53
2018-06-18T03:44:21.168Z,77.53
2018-06-18T03:46:21.217Z,76.48
2018-06-18T03:47:21.236Z,75.52
2018-06-18T03:48:21.259Z,74.85
2018-06-18T03:50:21.307Z,74.22
2018-06-18T03:51:21.328Z,73.26
2018-06-18T03:52:21.354Z,73.65
2018-06-18T03:53:36.043Z,73.35
2018-06-18T03:54:21.402Z,73.16
2018-06-18T03:55:21.425Z,72.97
2018-06-18T03:56:21.192Z,73.65
2018-06-18T03:57:21.473Z,73.16
2018-06-18T03:58:21.496Z,72.91
2018-06-18T03:59:21.521Z,73.1
2018-06-18T04:00:21.549Z,72.43
2018-06-18T04:02:21.334Z,71.86
2018-06-18T04:03:21.623Z,72.05
2018-06-18T04:04:21.641Z,71.86
2018-06-18T04:05:21.839Z,72.81
2018-06-18T04:06:21.688Z,72.14
2018-06-18T04:07:21.714Z,72.05
2018-06-18T04:08:21.478Z,72.43
2018-06-18T04:09:36.419Z,71.66
2018-06-18T04:10:21.784Z,72.05
2018-06-18T04:11:21.808Z,71.51
2018-06-18T04:12:21.998Z,69.62
2018-06-18T04:13:21.855Z,66.42
2018-06-18T04:14:21.879Z,63.79
2018-06-18T04:15:21.904Z,62.87
2018-06-18T04:16:21.928Z,60.68
2018-06-18T04:17:21.954Z,58.52
2018-06-18T04:20:22.033Z,54.75
2018-06-18T04:21:22.058Z,53.61
2018-06-18T04:22:22.080Z,53.23
2018-06-18T04:23:22.105Z,53.06
2018-06-18T04:24:21.876Z,53.23
2018-06-18T04:25:36.820Z,53.52
2018-06-18T04:26:22.187Z,53.33
2018-06-18T04:27:22.214Z,52.77
2018-06-18T04:28:21.982Z,51.83
2018-06-18T04:29:22.267Z,50.89
2018-06-18T04:30:22.392Z,50.31
2018-06-18T04:31:22.326Z,49.07
2018-06-18T04:32:22.346Z,48.42
2018-06-18T04:34:22.146Z,46.65
2018-06-18T04:35:22.534Z,46.55
2018-06-18T04:37:22.489Z,45.41
2018-06-18T04:38:22.519Z,45.14
2018-06-18T04:39:22.647Z,44
2018-06-18T04:40:22.577Z,44.09
2018-06-18T04:41:37.267Z,43.63
2018-06-18T04:42:22.638Z,42.27
2018-06-18T04:43:22.406Z,42.85
2018-06-18T04:44:22.693Z,40.83
2018-06-18T04:45:22.726Z,40.88
2018-06-18T04:46:22.759Z,40.31
2018-06-18T04:47:22.784Z,40.48
2018-06-18T04:48:22.818Z,39.92
2018-06-18T04:49:22.845Z,39.36
2018-06-18T04:50:22.882Z,39.36
2018-06-18T04:51:22.911Z,39.55
2018-06-18T04:52:22.686Z,38.79
2018-06-18T04:53:22.975Z,38.2
2018-06-18T04:54:23.007Z,39.57
2018-06-18T04:55:23.039Z,39.8
2018-06-18T04:56:37.757Z,40.09
2018-06-18T04:57:23.099Z,40.39
2018-06-18T04:58:23.132Z,38.87
2018-06-18T04:59:23.165Z,38.89
2018-06-18T05:00:23.195Z,39.16
2018-06-18T05:01:23.228Z,38.12
2018-06-18T05:03:23.292Z,35.28
2018-06-18T05:04:23.322Z,34.93
2018-06-18T05:06:23.386Z,33.23
2018-06-18T05:07:23.419Z,33.12
2018-06-18T05:08:23.195Z,33.5
2018-06-18T05:09:23.486Z,36.26
2018-06-18T05:10:23.518Z,36.7
2018-06-18T05:11:23.295Z,37.55
2018-06-18T05:12:23.583Z,37.83
2018-06-18T05:13:23.620Z,38.61
2018-06-18T05:14:23.649Z,39.26
2018-06-18T05:15:23.684Z,39.62
2018-06-18T05:16:23.713Z,40.78
2018-06-18T05:17:23.743Z,40.85
2018-06-18T05:18:23.774Z,40.29
2018-06-18T05:19:23.803Z,39.82
2018-06-18T05:20:23.918Z,40.19
2018-06-18T05:21:23.881Z,40.68
2018-06-18T05:22:24.000Z,40.66
2018-06-18T05:23:23.929Z,41.71
2018-06-18T05:25:23.997Z,43.49
2018-06-18T05:26:24.087Z,43.95
2018-06-18T05:27:24.055Z,45.29
2018-06-18T05:28:38.746Z,47.19
2018-06-18T05:29:24.113Z,47.45
2018-06-18T05:30:24.148Z,48.03
2018-06-18T05:31:24.172Z,48.79
2018-06-18T05:32:23.942Z,49.17
2018-06-18T05:33:23.973Z,50.18
2018-06-18T05:34:24.268Z,51.06
2018-06-18T05:35:24.367Z,52
2018-06-18T05:37:24.347Z,52.09
2018-06-18T05:38:24.371Z,51.9
2018-06-18T05:39:24.400Z,52
2018-06-18T05:40:24.431Z,51.03
2018-06-18T05:41:24.464Z,50.84
2018-06-18T05:42:24.485Z,51.32
2018-06-18T05:43:24.279Z,51.9
2018-06-18T05:44:39.202Z,51.13
2018-06-18T05:45:24.566Z,52.39
2018-06-18T05:46:24.596Z,52.58
2018-06-18T05:47:24.619Z,52.39
2018-06-18T05:48:24.646Z,52.65
2018-06-18T05:49:24.679Z,53.61
2018-06-18T05:50:24.753Z,53.78
2018-06-18T05:51:24.729Z,53.66
2018-06-18T05:52:24.501Z,54.72
2018-06-18T05:53:24.781Z,55.1
2018-06-18T05:54:24.555Z,54.33
2018-06-18T05:55:24.845Z,54.17
2018-06-18T05:56:24.869Z,54.36
2018-06-18T05:57:24.893Z,55.01
2018-06-18T05:58:24.958Z,55.1
2018-06-18T05:59:24.949Z,55.01
2018-06-18T06:00:39.632Z,54.72
2018-06-18T06:01:24.998Z,55.2
2018-06-18T06:02:25.026Z,54.72
2018-06-18T06:03:25.051Z,55.3
2018-06-18T06:04:25.183Z,55.49
2018-06-18T06:05:25.105Z,55.01
2018-06-18T06:06:25.130Z,55.13
2018-06-18T06:07:25.159Z,54.94
2018-06-18T06:08:25.181Z,55.33
2018-06-18T06:10:25.237Z,56.72
2018-06-18T06:12:25.285Z,54.91
2018-06-18T06:13:25.313Z,54.72
2018-06-18T06:14:25.342Z,55.01
2018-06-18T06:15:25.108Z,54.98
2018-06-18T06:16:40.054Z,55.18
2018-06-18T06:17:25.421Z,55.3
2018-06-18T06:18:25.445Z,55.49
2018-06-18T06:19:25.469Z,55.49
2018-06-18T06:20:25.494Z,55.49
2018-06-18T06:21:25.264Z,55.59
2018-06-18T06:22:25.303Z,55.01
2018-06-18T06:23:25.626Z,54.53
2018-06-18T06:25:25.625Z,55.4
2018-06-18T06:26:25.651Z,54.02
2018-06-18T06:27:25.679Z,53.85
2018-06-18T06:29:25.732Z,54.82
2018-06-18T06:30:25.499Z,54.43
2018-06-18T06:31:40.447Z,54.17
2018-06-18T06:32:25.811Z,53.88
2018-06-18T06:33:25.836Z,53.59
2018-06-18T06:34:25.861Z,53.78
2018-06-18T06:35:25.889Z,53.97
2018-06-18T06:36:25.916Z,54.07
2018-06-18T06:37:26.001Z,53.97
2018-06-18T06:38:25.709Z,53.97
2018-06-18T06:39:25.991Z,53.69
2018-06-18T06:40:25.759Z,53.52
2018-06-18T06:41:26.051Z,53.23
2018-06-18T06:42:26.070Z,52.58
2018-06-18T06:43:26.097Z,51.81
2018-06-18T06:44:26.124Z,51.54
2018-06-18T06:45:26.150Z,51.9
2018-06-18T06:46:26.174Z,51.9
2018-06-18T06:47:26.203Z,51.13
2018-06-18T06:48:26.326Z,51.35
2018-06-18T06:49:26.259Z,51.13
2018-06-18T06:50:26.280Z,50.74
2018-06-18T06:51:26.149Z,50.93
2018-06-18T06:52:26.076Z,51.97
2018-06-18T06:53:26.100Z,51.87
2018-06-18T06:54:26.386Z,52.53
2018-06-18T06:55:26.411Z,52.07
2018-06-18T06:56:26.439Z,51.87
2018-06-18T06:57:26.207Z,51.51
2018-06-18T06:58:26.490Z,51.71
2018-06-18T06:59:26.518Z,51.13
2018-06-18T07:00:26.555Z,51.01
2018-06-18T07:01:26.661Z,51.61
2018-06-18T07:02:26.596Z,52.17
2018-06-18T07:03:41.285Z,52.17
2018-06-18T07:04:26.649Z,52.19
2018-06-18T07:05:26.417Z,50.84
2018-06-18T07:06:26.707Z,50.93
2018-06-18T07:07:26.727Z,50.86
2018-06-18T07:10:26.810Z,49.05
2018-06-18T07:15:26.689Z,44.75
2018-06-18T07:16:26.713Z,43.9
2018-06-18T07:17:26.995Z,43.61
2018-06-18T07:18:27.028Z,42.74
2018-06-18T07:19:41.721Z,43.4
2018-06-18T07:20:26.823Z,43.27
2018-06-18T07:21:26.849Z,43.76
2018-06-18T07:22:27.147Z,44.61
2018-06-18T07:23:27.164Z,45.75
2018-06-18T07:24:26.934Z,45.47
2018-06-18T07:25:27.224Z,45.17
2018-06-18T07:26:26.990Z,45.48
2018-06-18T07:27:27.286Z,45.2
2018-06-18T07:28:27.306Z,44.34
2018-06-18T07:29:27.339Z,43.4
2018-06-18T07:30:27.299Z,43.66
2018-06-18T07:31:27.392Z,42.33
2018-06-18T07:32:27.161Z,42.46
2018-06-18T07:33:27.192Z,41.69
2018-06-18T07:34:27.481Z,40.34
2018-06-18T07:35:42.167Z,41.44
2018-06-18T07:36:27.635Z,40.85
2018-06-18T07:37:27.564Z,40.48
2018-06-18T07:38:27.656Z,41.06
2018-06-18T07:39:27.625Z,40.78
2018-06-18T07:41:27.683Z,42.29
2018-06-18T07:42:27.714Z,41.83
2018-06-18T07:43:27.838Z,41.63
2018-06-18T07:44:27.768Z,42.68
2018-06-18T07:45:27.826Z,42.1
2018-06-18T07:46:27.827Z,41.34
2018-06-18T07:47:27.854Z,41.73
2018-06-18T07:48:27.884Z,40.95
2018-06-18T07:49:27.661Z,41.34
2018-06-18T07:50:27.945Z,42
2018-06-18T07:51:42.764Z,42.18
2018-06-18T07:52:28.000Z,42.36
2018-06-18T07:53:28.028Z,42.39
2018-06-18T07:54:27.804Z,42.6
2018-06-18T07:55:27.830Z,40.97
2018-06-18T07:56:28.119Z,40.01
2018-06-18T07:57:28.149Z,41.36
2018-06-18T07:58:28.176Z,41.46
2018-06-18T08:00:28.240Z,41.44
2018-06-18T08:01:28.276Z,42
2018-06-18T08:02:28.306Z,43.54
2018-06-18T08:03:28.353Z,43.32
2018-06-18T08:04:28.093Z,44.09
2018-06-18T08:05:28.388Z,44.29
2018-06-18T08:06:43.077Z,44.95
2018-06-18T08:07:28.184Z,45.43
2018-06-18T08:08:28.481Z,45.43
2018-06-18T08:09:28.500Z,45.24
2018-06-18T08:10:28.527Z,45.14
2018-06-18T08:11:28.556Z,46.01
2018-06-18T08:12:28.584Z,46.67
2018-06-18T08:13:28.613Z,46.48
2018-06-18T08:15:28.677Z,46.09
2018-06-18T08:16:28.701Z,46.48
2018-06-18T08:17:28.733Z,46.77
2018-06-18T08:18:28.759Z,47.13
2018-06-18T08:19:28.785Z,47.81
2018-06-18T08:20:28.820Z,47.72
2018-06-18T08:21:28.843Z,47.25
2018-06-18T08:22:28.867Z,46.01
2018-06-18T08:23:28.896Z,45.26
2018-06-18T08:24:28.927Z,44.7
2018-06-18T08:25:28.962Z,43.92
2018-06-18T08:26:28.726Z,43.55
2018-06-18T08:27:29.014Z,43.75
2018-06-18T08:28:29.043Z,44.12
2018-06-18T08:29:28.812Z,43.75
2018-06-18T08:30:29.099Z,42.87
2018-06-18T08:31:28.869Z,43.92
2018-06-18T08:33:28.929Z,43.55
2018-06-18T08:34:28.955Z,43.26
2018-06-18T08:35:29.242Z,42.9
2018-06-18T08:36:29.012Z,42.99
2018-06-18T08:37:29.045Z,42.58
2018-06-18T08:38:43.989Z,43.63
2018-06-18T08:39:29.357Z,43.82
2018-06-18T08:40:29.127Z,44.02
2018-06-18T08:41:29.428Z,43.82
2018-06-18T08:42:29.444Z,43.55
2018-06-18T08:43:29.217Z,43.48
2018-06-18T08:44:29.243Z,42.97
2018-06-18T08:45:29.540Z,43.26
2018-06-18T08:46:29.570Z,42.78
2018-06-18T08:47:29.589Z,42.6
2018-06-18T08:49:29.646Z,42.58
2018-06-18T08:50:29.673Z,42.78
2018-06-18T08:51:29.704Z,42.78
2018-06-18T08:52:29.730Z,43.15
2018-06-18T08:53:29.759Z,42.8
2018-06-18T08:54:44.453Z,41.65
2018-06-18T08:55:29.829Z,41.94
2018-06-18T08:56:29.855Z,42.63
2018-06-18T08:57:29.890Z,42.99
2018-06-18T08:58:29.906Z,42.8
2018-06-18T08:59:29.680Z,42.7
2018-06-18T09:00:29.974Z,42.43
2018-06-18T09:01:29.997Z,41.65
2018-06-18T09:03:30.057Z,42.43
2018-06-18T09:04:30.084Z,42.14
2018-06-18T09:05:30.112Z,42.91
2018-06-18T09:06:30.144Z,42.33
2018-06-18T09:07:29.914Z,42.04
2018-06-18T09:08:30.202Z,40.72
2018-06-18T09:09:29.973Z,40.62
2018-06-18T09:10:44.921Z,40.72
2018-06-18T09:11:30.294Z,40.64
2018-06-18T09:12:30.318Z,40.06
2018-06-18T09:13:30.348Z,40.23
2018-06-18T09:14:30.119Z,40.72
2018-06-18T09:15:30.413Z,40.52
2018-06-18T09:16:30.438Z,39.2
2018-06-18T09:17:30.478Z,37.48
2018-06-18T09:18:30.497Z,37.4
2018-06-18T09:19:30.546Z,36.34
2018-06-18T09:20:30.557Z,37.14
2018-06-18T09:21:30.331Z,36.26
2018-06-18T09:22:30.619Z,36.47
2018-06-18T09:23:30.654Z,36.44
2018-06-18T09:24:30.681Z,37.01
2018-06-18T09:25:30.711Z,36.82
2018-06-18T09:26:45.405Z,38.35
2018-06-18T09:27:30.516Z,38.12
2018-06-18T09:28:30.806Z,38.24
2018-06-18T09:29:30.576Z,38.92
2018-06-18T09:30:30.866Z,38.71
2018-06-18T09:31:30.897Z,38.71
2018-06-18T09:32:31.346Z,38.24
2018-06-18T09:33:30.962Z,37.11
2018-06-18T09:35:31.024Z,36.44
2018-06-18T09:36:31.054Z,36.16
2018-06-18T09:37:31.084Z,35.69
2018-06-18T09:38:31.116Z,34.93
2018-06-18T09:39:31.148Z,33.12
2018-06-18T09:40:31.187Z,32.82
2018-06-18T09:41:45.875Z,33.5
2018-06-18T09:42:31.249Z,33.5
2018-06-18T09:43:31.018Z,33.8
2018-06-18T09:44:31.308Z,34.36
2018-06-18T09:45:31.340Z,33.98
2018-06-18T09:46:31.372Z,34.96
2018-06-18T09:48:31.437Z,36.26
2018-06-18T09:49:31.467Z,36.36
2018-06-18T09:50:31.499Z,37.4
2018-06-18T09:51:31.540Z,38.43
2018-06-18T09:52:31.309Z,39.18
2018-06-18T09:53:31.337Z,40.11
2018-06-18T09:54:31.632Z,40.48
2018-06-18T09:55:31.399Z,39.26
2018-06-18T09:56:31.692Z,38.02
2018-06-18T09:57:31.718Z,36.41
2018-06-18T09:58:31.752Z,35.19
2018-06-18T09:59:31.783Z,33.95
2018-06-18T10:00:31.813Z,32.81
2018-06-18T10:02:31.882Z,32.42
2018-06-18T10:03:31.910Z,31.96
2018-06-18T10:04:31.683Z,30.91
2018-06-18T10:05:31.974Z,30.12
2018-06-18T10:06:32.004Z,30.42
2018-06-18T10:07:32.038Z,30.99
2018-06-18T10:08:32.337Z,31.09
2018-06-18T10:09:32.101Z,29.85
2018-06-18T10:10:32.172Z,29.37
2018-06-18T10:11:32.164Z,28.49
2018-06-18T10:12:32.195Z,28.49
2018-06-18T10:13:46.892Z,29.16
2018-06-18T10:14:32.328Z,30.14
2018-06-18T10:15:32.297Z,30.68
2018-06-18T10:16:32.331Z,31.65
2018-06-18T10:17:32.359Z,32.39
2018-06-18T10:19:32.422Z,32.97
2018-06-18T10:20:32.452Z,33.54
2018-06-18T10:21:32.485Z,35.36
2018-06-18T10:22:32.520Z,35.27
2018-06-18T10:23:32.549Z,34.48
2018-06-18T10:24:32.845Z,34.58
2018-06-18T10:25:32.613Z,35.17
2018-06-18T10:26:32.646Z,35.16
2018-06-18T10:27:32.684Z,35.16
2018-06-18T10:28:32.706Z,35.16
2018-06-18T10:29:47.399Z,34.89
2018-06-18T10:30:32.768Z,34.39
2018-06-18T10:31:32.799Z,35.33
2018-06-18T10:32:32.833Z,35.51
2018-06-18T10:33:32.609Z,35.33
2018-06-18T10:34:32.897Z,36.37
2018-06-18T10:35:32.922Z,36.18
2018-06-18T10:36:32.961Z,36.18
2018-06-18T10:37:32.984Z,37.35
2018-06-18T10:38:33.015Z,38.07
2018-06-18T10:39:33.052Z,37.87
2018-06-18T10:40:33.079Z,37.02
2018-06-18T10:41:33.139Z,36.92
2018-06-18T10:42:33.140Z,36.9
2018-06-18T10:43:33.170Z,36.94
2018-06-18T10:44:32.950Z,37.12
2018-06-18T10:45:47.894Z,37.99
2018-06-18T10:46:33.274Z,37.33
2018-06-18T10:47:33.036Z,36.43
2018-06-18T10:48:33.325Z,36.74
2018-06-18T10:49:33.355Z,36.74
2018-06-18T10:50:33.384Z,36.45
2018-06-18T10:51:33.417Z,35.86
2018-06-18T10:53:33.482Z,36.14
2018-06-18T10:54:33.251Z,36.33
2018-06-18T10:55:33.540Z,36.32
2018-06-18T10:56:33.574Z,36.4
2018-06-18T10:57:33.604Z,37.08
2018-06-18T10:58:33.632Z,36.98
2018-06-18T10:59:33.668Z,37.46
2018-06-18T11:00:33.690Z,37.26
2018-06-18T11:01:48.387Z,37.26
2018-06-18T11:02:33.754Z,37.16
2018-06-18T11:03:33.784Z,37.18
2018-06-18T11:04:33.553Z,36.88
2018-06-18T11:05:33.843Z,37.16
2018-06-18T11:06:33.880Z,37.56
2018-06-18T11:07:33.645Z,38.11
2018-06-18T11:08:33.987Z,38.13
2018-06-18T11:09:33.966Z,38.5
2018-06-18T11:10:33.998Z,37.26
2018-06-18T11:12:34.051Z,37.26
2018-06-18T11:13:34.082Z,37.37
2018-06-18T11:14:34.112Z,37.19
2018-06-18T11:16:49.126Z,36.43
2018-06-18T11:17:33.944Z,36.63
2018-06-18T11:18:34.229Z,36.92
2018-06-18T11:19:34.259Z,36.82
2018-06-18T11:20:34.291Z,36.72
2018-06-18T11:21:34.321Z,37.31
2018-06-18T11:24:34.551Z,36.82
2018-06-18T11:25:34.441Z,38.13
2018-06-18T11:26:34.712Z,38.03
2018-06-18T11:27:34.500Z,38.71
2018-06-18T11:28:34.283Z,38.24
2018-06-18T11:29:34.561Z,39
2018-06-18T11:30:34.587Z,39.76
2018-06-18T11:31:34.615Z,39.76
2018-06-18T11:32:34.718Z,39.67
2018-06-18T11:33:34.674Z,40.06
2018-06-18T11:34:34.446Z,39.76
2018-06-18T11:36:34.763Z,40.25
2018-06-18T11:37:34.791Z,39.76
2018-06-18T11:38:34.820Z,39.47
2018-06-18T11:39:34.964Z,40.08
2018-06-18T11:41:34.656Z,39.8
2018-06-18T11:42:34.938Z,39.88
2018-06-18T11:43:35.111Z,40.37
2018-06-18T11:45:34.773Z,39.12
2018-06-18T11:46:35.052Z,39.22
2018-06-18T11:47:35.079Z,38.75
2018-06-18T11:48:49.772Z,38.57
2018-06-18T11:49:34.882Z,38.65
2018-06-18T11:50:35.171Z,38.38
2018-06-18T11:51:35.196Z,37.97
2018-06-18T11:52:35.358Z,38.26
2018-06-18T11:53:35.256Z,38.07
2018-06-18T11:54:35.286Z,37.87
2018-06-18T11:55:35.320Z,38.24
2018-06-18T11:56:35.351Z,38.17
2018-06-18T11:57:35.374Z,37.39
2018-06-18T11:58:35.153Z,37.58
2018-06-18T11:59:35.440Z,38.07
2018-06-18T12:00:35.202Z,37.68
2018-06-18T12:01:35.665Z,36.43
2018-06-18T12:02:35.263Z,36.84
2018-06-18T12:03:35.553Z,36.72
2018-06-18T12:04:50.248Z,36.35
2018-06-18T12:05:35.610Z,36.53
2018-06-18T12:06:35.635Z,36.04
2018-06-18T12:07:35.667Z,35.75
2018-06-18T12:08:35.447Z,36.12
2018-06-18T12:09:35.828Z,36.43
2018-06-18T12:10:35.753Z,36.12
2018-06-18T12:11:35.789Z,36.32
2018-06-18T12:13:35.841Z,36.32
2018-06-18T12:14:35.874Z,36.51
2018-06-18T12:15:35.901Z,35.85
2018-06-18T12:16:35.929Z,35.47
2018-06-18T12:17:35.961Z,35.77
2018-06-18T12:18:35.990Z,36.24
2018-06-18T12:19:35.761Z,35.85
2018-06-18T12:20:50.710Z,36.92
2018-06-18T12:21:36.084Z,36.79
2018-06-18T12:22:35.902Z,36.12
2018-06-18T12:23:36.139Z,36.8
2018-06-18T12:24:36.265Z,37
2018-06-18T12:25:36.299Z,36.14
2018-06-18T12:26:36.227Z,35.75
2018-06-18T12:27:35.997Z,36.69
2018-06-18T12:28:36.028Z,37.46
2018-06-18T12:30:36.346Z,37.27
2018-06-18T12:31:36.372Z,37.27
2018-06-18T12:32:36.400Z,37.48
2018-06-18T12:33:36.433Z,36.92
2018-06-18T12:34:36.460Z,36.33
2018-06-18T12:35:36.489Z,36.71
2018-06-18T12:36:51.179Z,36.33
2018-06-18T12:37:36.553Z,35.65
2018-06-18T12:38:36.578Z,35.65
2018-06-18T12:39:36.348Z,36.24
2018-06-18T12:40:36.636Z,36.33
2018-06-18T12:41:36.767Z,37.19
2018-06-18T12:42:36.692Z,38.17
2018-06-18T12:43:36.773Z,37.48
2018-06-18T12:45:36.782Z,38.73
2018-06-18T12:46:36.560Z,38.24
2018-06-18T12:47:36.838Z,38.64
2018-06-18T12:48:36.869Z,38.42
2018-06-18T12:49:36.904Z,38.03
2018-06-18T12:50:36.670Z,38.42
2018-06-18T12:51:51.620Z,38.13
2018-06-18T12:52:36.994Z,38.65
2018-06-18T12:53:37.017Z,37.48
2018-06-18T12:54:37.059Z,37.02
2018-06-18T12:55:37.074Z,36.53
2018-06-18T12:57:37.141Z,36.41
2018-06-18T12:58:37.162Z,35.75
2018-06-18T12:59:37.189Z,36.02
2018-06-18T13:00:37.219Z,36.2
2018-06-18T13:01:37.258Z,36.77
2018-06-18T13:02:37.279Z,37.43
2018-06-18T13:03:37.318Z,37.43
2018-06-18T13:04:37.341Z,38.11
2018-06-18T13:05:37.366Z,37.14
2018-06-18T13:06:37.407Z,37.34
2018-06-18T13:07:37.446Z,38.09
2018-06-18T13:08:37.453Z,38.19
2018-06-18T13:09:37.482Z,38.17
2018-06-18T13:10:37.512Z,38.56
2018-06-18T13:11:37.544Z,39.04
2018-06-18T13:12:37.569Z,38.95
2018-06-18T13:13:37.598Z,38.39
2018-06-18T13:14:37.369Z,38.29
2018-06-18T13:15:37.653Z,38.29
2018-06-18T13:16:37.424Z,38.19
2018-06-18T13:18:37.741Z,38.46
2018-06-18T13:19:37.783Z,38.65
2018-06-18T13:20:37.797Z,39.04
2018-06-18T13:21:37.831Z,38.29
2018-06-18T13:22:37.853Z,38.48
2018-06-18T13:23:52.554Z,38.09
2018-06-18T13:24:37.654Z,38.21
2018-06-18T13:25:37.940Z,37.62
2018-06-18T13:26:37.970Z,37.34
2018-06-18T13:27:37.999Z,37.24
2018-06-18T13:28:38.027Z,37.14
2018-06-18T13:29:37.797Z,36.87
2018-06-18T13:30:38.112Z,36.28
2018-06-18T13:32:38.141Z,36.85
2018-06-18T13:33:38.169Z,36.87
2018-06-18T13:34:38.201Z,37.16
2018-06-18T13:35:38.225Z,37.06
2018-06-18T13:36:37.997Z,36.87
2018-06-18T13:37:38.284Z,37.24
2018-06-18T13:38:38.320Z,37.52
2018-06-18T13:39:53.002Z,37.02
2018-06-18T13:41:38.398Z,37.6
2018-06-18T13:42:38.431Z,37.52
2018-06-18T13:43:38.451Z,38.01
2018-06-18T13:44:38.228Z,37.52
2018-06-18T13:45:38.520Z,38.01
2018-06-18T13:46:38.543Z,37.62
2018-06-18T13:49:38.631Z,37.16
2018-06-18T13:50:38.663Z,37.35
2018-06-18T13:51:38.426Z,37.34
2018-06-18T13:52:38.969Z,37.9
2018-06-18T13:54:38.770Z,37.54
2018-06-18T13:55:53.460Z,37.26
2018-06-18T13:56:38.829Z,37.16
2018-06-18T13:57:38.860Z,37.66
2018-06-18T13:58:39.036Z,36.98
2018-06-18T13:59:38.912Z,36.32
2018-06-18T14:00:38.941Z,36.32
2018-06-18T14:01:38.968Z,36.22
2018-06-18T14:02:38.743Z,35.94